Météo Nord-Pas-de-Calais   La météo au plus près de chez vous

Station météorologique

Observations météo à Tregunc (29293)

29293001 25 m Dernier relevé à 05:30
12.7°C
Humidité 94 % Vent 4 km/h

Journée consultée

Mercredi 2 Septembre 2026

Synthèse de la journée

Périodes de référence en UTC

Température maximale

21.1°C

à 14:18

06h 06h

Température minimale

12.7°C

à 05:30

18h 18h

Rafale maximale

7 km/h

à 04:36

00h 00h

Précipitations

0 mm

Cumul quotidien

06h 06h

Graphiques de la journée

Heure locale Réduire

Données détaillées

Relevés météo

Pas de 6 minutes Afficher les relevés infra-horaires
Relevés météo détaillés à Tregunc pour le Mercredi 2 Septembre 2026
Heure Température °C Point de rosée °C Humidité % Vent moyen (raf.), km/h Précipitations mm
05:30 12.7 °C 11.9 °C 95 % 3 km/h (4 km/h) 0 mm0 mm
05:24 12.8 °C 12.2 °C 96 % 3 km/h (4 km/h) 0 mm0 mm
05:18 12.8 °C 12 °C 95 % 4 km/h (7 km/h) 0 mm0 mm
05:12 13 °C 12.2 °C 95 % 6 km/h (7 km/h) 0 mm0 mm
05:06 13 °C 12.2 °C 95 % 4 km/h (7 km/h) 0 mm0 mm
05:00 13.1 °C 12.3 °C 95 % 2 km/h (5 km/h) 0 mm0 mm
04:54 13.2 °C 12.3 °C 94 % 0 km/h (4 km/h) 0 mm0 mm
04:48 13.2 °C 12.3 °C 94 % 3 km/h (6 km/h) 0 mm0 mm
04:42 13.4 °C 12.5 °C 94 % 4 km/h (7 km/h) 0 mm0 mm
04:36 13.4 °C 12.5 °C 94 % 4 km/h (7 km/h) 0 mm0 mm
04:30 13.4 °C 12.5 °C 94 % 4 km/h (6 km/h) 0 mm0 mm
04:24 13.4 °C 12.5 °C 94 % 3 km/h (6 km/h) 0 mm0 mm
04:18 13.5 °C 12.6 °C 94 % 3 km/h (5 km/h) 0 mm0 mm
04:12 13.6 °C 12.7 °C 94 % 3 km/h (5 km/h) 0 mm0 mm
04:06 13.7 °C 12.8 °C 94 % 3 km/h (4 km/h) 0 mm0 mm
04:00 13.8 °C 12.9 °C 94 % 3 km/h (4 km/h) 0 mm0 mm
03:54 13.8 °C 12.9 °C 94 % 3 km/h (4 km/h) 0 mm0 mm
03:48 13.8 °C 12.9 °C 94 % 3 km/h (4 km/h) 0 mm0 mm
03:42 13.7 °C 12.8 °C 94 % 3 km/h (5 km/h) 0 mm0 mm
03:36 13.8 °C 12.9 °C 94 % 4 km/h (5 km/h) 0 mm0 mm
03:30 13.9 °C 12.9 °C 94 % 4 km/h (6 km/h) 0 mm0 mm
03:24 13.8 °C 12.9 °C 94 % 4 km/h (6 km/h) 0 mm0 mm
03:18 13.8 °C 12.9 °C 94 % 2 km/h (4 km/h) 0 mm0 mm
03:12 13.7 °C 12.8 °C 94 % 0 km/h (2 km/h) 0 mm0 mm
03:06 13.8 °C 12.9 °C 94 % 0 km/h (0 km/h) 0 mm0 mm
03:00 13.7 °C 12.6 °C 93 % 0 km/h (0 km/h) 0 mm0 mm
02:54 13.9 °C 12.8 °C 93 % 0 km/h (0 km/h) 0 mm0 mm
02:48 13.9 °C 12.8 °C 93 % 0 km/h (3 km/h) 0 mm0 mm
02:42 14 °C 12.7 °C 92 % 0 km/h (3 km/h) 0 mm0 mm
02:36 14.1 °C 13 °C 93 % 0 km/h (3 km/h) 0 mm0 mm
02:30 14.1 °C 13 °C 93 % 0 km/h (3 km/h) 0 mm0 mm
02:24 14.1 °C 12.8 °C 92 % 0 km/h (4 km/h) 0 mm0 mm
02:18 14 °C 12.7 °C 92 % 0 km/h (4 km/h) 0 mm0 mm
02:12 14.1 °C 12.8 °C 92 % 0 km/h (0 km/h) 0 mm0 mm
02:06 14.1 °C 12.8 °C 92 % 0 km/h (2 km/h) 0 mm0 mm
02:00 14.2 °C 13.1 °C 93 % 0 km/h (2 km/h) 0 mm0 mm
01:54 14 °C 12.7 °C 92 % 2 km/h (3 km/h) 0 mm0 mm
01:48 13.9 °C 12.6 °C 92 % 0 km/h (3 km/h) 0 mm0 mm
01:42 14 °C 12.6 °C 91 % 0 km/h (3 km/h) 0 mm0 mm
01:36 14.1 °C 12.5 °C 90 % 2 km/h (4 km/h) 0 mm0 mm
01:30 14.3 °C 12.5 °C 89 % 3 km/h (4 km/h) 0 mm0 mm
01:24 14.4 °C 12.4 °C 88 % 0 km/h (3 km/h) 0 mm0 mm
01:18 14.5 °C 12.5 °C 88 % 0 km/h (3 km/h) 0 mm0 mm
01:12 14.7 °C 12.7 °C 88 % 2 km/h (3 km/h) 0 mm0 mm
01:06 14.9 °C 12.6 °C 86 % 3 km/h (4 km/h) 0 mm0 mm
01:00 15.1 °C 12.8 °C 86 % 3 km/h (4 km/h) 0 mm0 mm
00:54 15.2 °C 12.9 °C 86 % 4 km/h (6 km/h) 0 mm0 mm
00:48 15.3 °C 13 °C 86 % 4 km/h (6 km/h) 0 mm0 mm
00:42 15.2 °C 13 °C 87 % 5 km/h (6 km/h) 0 mm0 mm
00:36 15 °C 12.9 °C 87 % 4 km/h (6 km/h) 0 mm0 mm
00:30 14.8 °C 12.5 °C 86 % 3 km/h (5 km/h) 0 mm0 mm
00:24 14.9 °C 12.6 °C 86 % 3 km/h (4 km/h) 0 mm0 mm
00:18 15 °C 12.5 °C 85 % 3 km/h (4 km/h) 0 mm0 mm
00:12 15.2 °C 12.5 °C 84 % 2 km/h (3 km/h) 0 mm0 mm
00:06 15.3 °C 12.4 °C 83 % 2 km/h (3 km/h) 0 mm0 mm
00:00 15.5 °C 12.4 °C 82 % 2 km/h (3 km/h) 0 mm0 mm

Données via Météo-France

Relevés météo à Tregunc

Cette page rassemble les observations de la station de Tregunc : température, humidité, vent, précipitations et pression atmosphérique. Les graphiques facilitent le suivi de la journée, tandis que le tableau donne accès aux mesures horaires et infra-horaires disponibles.

Pour replacer ces mesures dans leur contexte, consultez la climatologie de Tregunc ainsi que ses normales et records. Retrouvez aussi la carte des observations météo en temps réel.